Detall de PIREP

Printer-friendly versionPDF version

[2010/07/30 23:09:00]
Flight IATA:CT0001
Pilot Number:026
Company ICAO:CAT
Aircraft Type:DC85/A
PAX:136
Departing Airport: LEBL
Destination Airport: LEGE
Alternate Airport:LEDA
Online: VATSIM
Route:DALIN A67 BGR
Flight Level:FL140
No Slew and time accel
No pause
Crash detect
Detect pilot in Cockpit between each 30 and 45 minutes
23:09 Zero fuel Weight: 185026 Lbs, Fuel Weight: 24001 Lbs
23:09 VATSIM:LEBL 302300Z 15006KT 9999 SCT030 25/19 Q1016 NOSIG
23:09 VATSIM:LEGE 302300Z 25001KT 9999 FEW020 SCT060 19/18 Q1016
23:10 VOICE CATALONIAN
23:12 Parking Brakes off
23:22 Take-off
23:22 Take off Weight: 207896 Lbs
23:22 Wind: 152º @ 005 Knots Heading: 066º
23:22 POS N41º 17´ 58´´ E002º 05´ 06´´
23:22 Gear Up: 188 Knots
23:22 Flaps:2 at 188 Knots
23:22 Flaps:1 at 206 Knots
23:23 Flaps:0 at 219 Knots
23:25 TOC
23:25 Fuel Weight: 21009 Lb
23:32 TOD
23:32 Fuel Weight: 19476 Lb
23:37 Wind:273º@001 Knots Heading: 305º Ground Speed: 281 Knots Altitude 8172 ft
23:40 Flaps:1 at 232 Knots
23:40 Gear Down: 209 Knots
23:41 Flaps:2 at 196 Knots
23:41 Flaps:3 at 175 Knots
23:42 Flaps:4 at 160 Knots
23:42 Flaps:5 at 151 Knots
23:43 TouchDown:Rate -164 ft/min Speed: 137 Knots
23:43 VATSIM:LEGE 302330Z 00000KT 9999 FEW020 19/18 Q1016
23:43 Land
23:43 Wind:253º@000 Knots
23:43 Heading: 188º
23:43 Flight Duration: 00:21
23:43 Landing Weight: 203704 Lbs
23:43 POS N41º 54´ 12´´ E002º 45´ 41´´
23:46 Parking brakes on
23:46 Block to Block Duration: 00:34
23:46 Final Fuel: 18421 Lbls
23:46 Spent Fuel: 5579 Lbls
23:46 Flight Length: 107 NM
23:46 TOD Land Length: 49 NM

Exportar CSV

Powered by Drupal - Modified by Danger4k